Sea Jet — WDD2601 — position and weather

sailwx.info

Track history (hours):
 
Tides and Currents Weather Stations Pressure Air Temp Water Temp Dewpoint Dewpoint Depression Visibility Wind Speed Wind Dir Waves Ship Positions

Sea Jet

Owner: Cross Sound Ferry Services, Inc., New London, CT. More information available from US FCC via Universal Licensing System and Coast Guard Vessel Documentation Center.

Last reported at 2017-Apr-23 00:30 UTC. Time now 2017-Apr-27 18:52 UTC.
Position N 41°14' W 072°09'.

Length 33 m.

Type: High speed craft. MMSI: 367117430.

Date/timePositionNaut miles runAvg speedWind from/ knotsBaromVisibWave heightAir tempDewpointWater temp
2017-Apr-23 00:30N 41°14' W 072°09'3 4.7
2017-Apr-22 23:49N 41°12' W 072°12'3 2.4
2017-Apr-22 22:30N 41°14' W 072°09'1 0.1
2017-Apr-22 00:36N 41°15' W 072°08'427.8
2017-Apr-22 00:28N 41°12' W 072°12'0 0.3
2017-Apr-21 23:49N 41°12' W 072°12'2 1.8
2017-Apr-21 22:35N 41°14' W 072°11'225.2
2017-Apr-21 22:31N 41°12' W 072°12'  
2017-Apr-17 00:36N 41°15' W 072°07'329.9
2017-Apr-17 00:30N 41°13' W 072°09'4 6.1
2017-Apr-16 23:50N 41°11' W 072°13'7 5.4
2017-Apr-16 22:35N 41°15' W 072°07'230.3
2017-Apr-16 22:30N 41°14' W 072°09'3 4.0
2017-Apr-16 21:49N 41°12' W 072°12'1 0.1
2017-Apr-16 13:49N 41°11' W 072°13'6 4.7
2017-Apr-16 12:37N 41°15' W 072°07'328.5
2017-Apr-16 12:30N 41°13' W 072°10'2 2.8
2017-Apr-16 11:46N 41°12' W 072°12'5 0.4
2017-Apr-16 00:32N 41°15' W 072°08'230.3
2017-Apr-16 00:28N 41°14' W 072°09'4 6.0
2017-Apr-15 23:50N 41°11' W 072°13'3 2.6
2017-Apr-15 22:31N 41°14' W 072°10'030.5
2017-Apr-15 22:30N 41°14' W 072°11'2 3.1
2017-Apr-15 21:49N 41°12' W 072°12'5 0.2
2017-Apr-15 00:34N 41°15' W 072°07'229.4
2017-Apr-15 00:29N 41°14' W 072°09'3 4.3
2017-Apr-14 23:47N 41°12' W 072°12'2 0.2
2017-Apr-14 11:43N 41°13' W 072°11'2 0.1
2017-Apr-14 00:32N 41°14' W 072°09'3 4.0
2017-Apr-13 23:47N 41°12' W 072°12'  
Track history (hours):
 
Tides and Currents Weather Stations Pressure Air Temp Water Temp Dewpoint Dewpoint Depression Visibility Wind Speed Wind Dir Waves Ship Positions

Sea Jet

Owner: Cross Sound Ferry Services, Inc., New London, CT. More information available from US FCC via Universal Licensing System and Coast Guard Vessel Documentation Center.

Last reported at 2017-Apr-23 00:30 UTC. Time now 2017-Apr-27 18:52 UTC.
Position N 41°14' W 072°09'.

Length 33 m.

Type: High speed craft. MMSI: 367117430.

Date/timePositionNaut miles runAvg speedWind from/ knotsBaromVisibWave heightAir tempDewpointWater temp
2017-Apr-23 00:30N 41°14' W 072°09'3 4.7
2017-Apr-22 23:49N 41°12' W 072°12'3 2.4
2017-Apr-22 22:30N 41°14' W 072°09'1 0.1
2017-Apr-22 00:36N 41°15' W 072°08'427.8
2017-Apr-22 00:28N 41°12' W 072°12'0 0.3
2017-Apr-21 23:49N 41°12' W 072°12'2 1.8
2017-Apr-21 22:35N 41°14' W 072°11'225.2
2017-Apr-21 22:31N 41°12' W 072°12'  
2017-Apr-17 00:36N 41°15' W 072°07'329.9
2017-Apr-17 00:30N 41°13' W 072°09'4 6.1
2017-Apr-16 23:50N 41°11' W 072°13'7 5.4
2017-Apr-16 22:35N 41°15' W 072°07'230.3
2017-Apr-16 22:30N 41°14' W 072°09'3 4.0
2017-Apr-16 21:49N 41°12' W 072°12'1 0.1
2017-Apr-16 13:49N 41°11' W 072°13'6 4.7
2017-Apr-16 12:37N 41°15' W 072°07'328.5
2017-Apr-16 12:30N 41°13' W 072°10'2 2.8
2017-Apr-16 11:46N 41°12' W 072°12'5 0.4
2017-Apr-16 00:32N 41°15' W 072°08'230.3
2017-Apr-16 00:28N 41°14' W 072°09'4 6.0
2017-Apr-15 23:50N 41°11' W 072°13'3 2.6
2017-Apr-15 22:31N 41°14' W 072°10'030.5
2017-Apr-15 22:30N 41°14' W 072°11'2 3.1
2017-Apr-15 21:49N 41°12' W 072°12'5 0.2
2017-Apr-15 00:34N 41°15' W 072°07'229.4
2017-Apr-15 00:29N 41°14' W 072°09'3 4.3
2017-Apr-14 23:47N 41°12' W 072°12'2 0.2
2017-Apr-14 11:43N 41°13' W 072°11'2 0.1
2017-Apr-14 00:32N 41°14' W 072°09'3 4.0
2017-Apr-13 23:47N 41°12' W 072°12'  

Dump ship's entire track history